Time;durP1;ratioP1;P1;durP2;ratioP2;P2;SDS_P1;SDS_P2;PMS_P1;PMS_P2;Temp;Humidity;BMP_temperature;BMP_pressure;BME280_temperature;BME280_humidity;BME280_pressure;Samples;Min_cycle;Max_cycle;Signal;HPM_P1;HPM_P2
2023/08/01 00:01:49;;;;;;;;;;;18.30;99.90;;;;;;5073305;28;19909;-69
2023/08/01 00:04:16;;;;;;;;;;;18.30;99.90;;;;;;5073178;28;19912;-69
2023/08/01 00:06:41;;;;;;;;;;;18.30;99.90;;;;;;5073363;28;20400;-69
2023/08/01 00:09:07;;;;;;;;;;;18.30;99.90;;;;;;5073217;28;19916;-69
2023/08/01 00:11:32;;;;;;;;;;;18.30;99.90;;;;;;5073770;28;19962;-69
2023/08/01 00:13:58;;;;;;;;;;;18.30;99.90;;;;;;5073376;28;19951;-68
2023/08/01 00:16:24;;;;;;;;;;;18.30;99.90;;;;;;5073239;28;19977;-69
2023/08/01 00:18:49;;;;;;;;;;;18.20;99.90;;;;;;5073246;28;19908;-69
2023/08/01 00:21:15;;;;;;;;;;;18.30;99.90;;;;;;5071799;28;20361;-68
2023/08/01 00:23:40;;;;;;;;;;;18.20;99.90;;;;;;5072450;28;20328;-69
2023/08/01 00:26:06;;;;;;;;;;;18.20;99.90;;;;;;5071731;28;19909;-68
2023/08/01 00:28:32;;;;;;;;;;;18.20;99.90;;;;;;5072659;28;19912;-68
2023/08/01 00:31:01;;;;;;;;;;;18.20;99.90;;;;;;5072751;28;19961;-68
2023/08/01 00:33:27;;;;;;;;;;;18.20;99.90;;;;;;5072471;28;20408;-68
2023/08/01 00:35:55;;;;;;;;;;;18.20;99.90;;;;;;5073148;28;19914;-69
2023/08/01 00:38:21;;;;;;;;;;;18.20;99.90;;;;;;5072780;28;19995;-68
2023/08/01 00:40:46;;;;;;;;;;;18.20;99.90;;;;;;5072605;28;20426;-69
2023/08/01 00:43:12;;;;;;;;;;;18.30;99.90;;;;;;5072337;28;20023;-69
2023/08/01 00:45:38;;;;;;;;;;;18.30;99.90;;;;;;5071523;28;19955;-69
2023/08/01 00:48:03;;;;;;;;;;;18.30;99.90;;;;;;5071364;28;19904;-69
2023/08/01 00:50:29;;;;;;;;;;;18.30;99.90;;;;;;5072822;28;20338;-69
2023/08/01 00:52:54;;;;;;;;;;;18.20;99.90;;;;;;5072569;28;19939;-69
2023/08/01 00:55:21;;;;;;;;;;;18.20;99.90;;;;;;5071213;28;19923;-69
2023/08/01 00:57:47;;;;;;;;;;;18.30;99.90;;;;;;5070999;28;19912;-68
2023/08/01 01:00:12;;;;;;;;;;;18.30;99.90;;;;;;5072163;28;20231;-69
2023/08/01 01:02:38;;;;;;;;;;;18.20;99.90;;;;;;5072373;28;19905;-68
2023/08/01 01:05:05;;;;;;;;;;;18.20;99.90;;;;;;5072074;28;19915;-69
2023/08/01 01:07:31;;;;;;;;;;;18.30;99.90;;;;;;5070933;28;19908;-69
2023/08/01 01:09:57;;;;;;;;;;;18.20;99.90;;;;;;5071955;28;20093;-69
2023/08/01 01:12:23;;;;;;;;;;;18.20;99.90;;;;;;5071834;28;20334;-69
2023/08/01 01:14:48;;;;;;;;;;;18.20;99.90;;;;;;5072372;28;19916;-69
2023/08/01 01:17:14;;;;;;;;;;;18.20;99.90;;;;;;5070632;28;19932;-69
2023/08/01 01:19:39;;;;;;;;;;;18.20;99.90;;;;;;5071973;28;20008;-69
2023/08/01 01:22:06;;;;;;;;;;;18.20;99.90;;;;;;5071929;28;20289;-69
2023/08/01 01:24:33;;;;;;;;;;;18.20;99.90;;;;;;5071593;28;19913;-69
2023/08/01 01:26:59;;;;;;;;;;;18.20;99.90;;;;;;5072146;28;19973;-69
2023/08/01 01:29:25;;;;;;;;;;;18.20;99.90;;;;;;5071519;28;19908;-69
2023/08/01 01:31:52;;;;;;;;;;;18.20;99.90;;;;;;5071503;28;19912;-69
2023/08/01 01:34:18;;;;;;;;;;;18.20;99.90;;;;;;5071274;28;19924;-69
2023/08/01 01:36:43;;;;;;;;;;;18.20;99.90;;;;;;5086356;28;19995;-69
2023/08/01 01:39:09;;;;;;;;;;;18.20;99.90;;;;;;5091668;28;19903;-70
2023/08/01 01:41:34;;;;;;;;;;;18.20;99.90;;;;;;5092094;28;19907;-68
2023/08/01 01:44:00;;;;;;;;;;;18.20;99.90;;;;;;5091532;28;19998;-69
2023/08/01 01:46:26;;;;;;;;;;;18.20;99.90;;;;;;5091999;28;19976;-69
2023/08/01 01:48:51;;;;;;;;;;;18.20;99.90;;;;;;5091751;28;19942;-69
2023/08/01 01:51:16;;;;;;;;;;;18.20;99.90;;;;;;5091644;28;19942;-68
2023/08/01 01:53:42;;;;;;;;;;;18.20;99.90;;;;;;5091895;28;19997;-68
2023/08/01 01:56:08;;;;;;;;;;;18.10;99.90;;;;;;5091757;28;19908;-68
2023/08/01 01:58:33;;;;;;;;;;;18.20;99.90;;;;;;5091326;28;20032;-69
2023/08/01 02:00:59;;;;;;;;;;;18.20;99.90;;;;;;5091422;28;20177;-69
2023/08/01 02:03:24;;;;;;;;;;;18.20;99.90;;;;;;5091215;28;19927;-69
2023/08/01 02:05:50;;;;;;;;;;;18.10;99.90;;;;;;5090787;28;20217;-69
2023/08/01 02:08:16;;;;;;;;;;;18.10;99.90;;;;;;5091260;28;19908;-68
2023/08/01 02:10:41;;;;;;;;;;;18.20;99.90;;;;;;5091194;28;19951;-69
2023/08/01 02:13:08;;;;;;;;;;;18.10;99.90;;;;;;5091099;28;19912;-68
2023/08/01 02:15:34;;;;;;;;;;;18.10;99.90;;;;;;5091170;28;19912;-69
2023/08/01 02:17:59;;;;;;;;;;;18.10;99.90;;;;;;5091808;28;19973;-69
2023/08/01 02:20:26;;;;;;;;;;;18.10;99.90;;;;;;5091177;28;20003;-69
2023/08/01 02:22:51;;;;;;;;;;;18.10;99.90;;;;;;5090833;28;19912;-68
2023/08/01 02:25:17;;;;;;;;;;;18.20;99.90;;;;;;5089943;28;20012;-69
2023/08/01 02:27:42;;;;;;;;;;;18.10;99.90;;;;;;5090819;28;20312;-68
2023/08/01 02:30:08;;;;;;;;;;;18.10;99.90;;;;;;5091085;28;19961;-68
2023/08/01 02:32:34;;;;;;;;;;;18.10;99.90;;;;;;5091094;28;20385;-69
2023/08/01 02:34:59;;;;;;;;;;;18.10;99.90;;;;;;5090824;28;20335;-68
2023/08/01 02:37:25;;;;;;;;;;;18.10;99.90;;;;;;5089633;28;19908;-69
2023/08/01 02:39:50;;;;;;;;;;;18.10;99.90;;;;;;5091024;28;19942;-68
2023/08/01 02:42:16;;;;;;;;;;;18.10;99.90;;;;;;5090941;28;19905;-68
2023/08/01 02:44:41;;;;;;;;;;;18.00;99.90;;;;;;5090030;28;19962;-68
2023/08/01 02:47:07;;;;;;;;;;;18.00;99.90;;;;;;5093371;28;20350;-69
2023/08/01 02:49:32;;;;;;;;;;;18.00;99.90;;;;;;5096279;28;19908;-68
2023/08/01 02:51:58;;;;;;;;;;;18.00;99.90;;;;;;5097578;28;19908;-69
2023/08/01 02:54:24;;;;;;;;;;;18.10;99.90;;;;;;5096217;28;19907;-69
2023/08/01 02:56:50;;;;;;;;;;;18.00;99.90;;;;;;5097860;28;19950;-68
2023/08/01 02:59:18;;;;;;;;;;;18.00;99.90;;;;;;5097513;28;19908;-69
2023/08/01 03:01:43;;;;;;;;;;;18.00;99.90;;;;;;5097674;28;19914;-68
2023/08/01 03:04:11;;;;;;;;;;;18.00;99.90;;;;;;5097270;28;19912;-68
2023/08/01 03:06:37;;;;;;;;;;;18.00;99.90;;;;;;5097252;28;19911;-68
2023/08/01 03:09:02;;;;;;;;;;;18.00;99.90;;;;;;5097080;28;20219;-69
2023/08/01 03:11:28;;;;;;;;;;;18.00;99.90;;;;;;5097484;28;20322;-69
2023/08/01 03:13:53;;;;;;;;;;;18.00;99.90;;;;;;5097166;28;19961;-69
2023/08/01 03:16:19;;;;;;;;;;;18.00;99.90;;;;;;5097036;28;19969;-69
2023/08/01 03:18:45;;;;;;;;;;;18.00;99.90;;;;;;5096995;28;19919;-69
2023/08/01 03:21:10;;;;;;;;;;;17.90;99.90;;;;;;5095839;28;19908;-69
2023/08/01 03:23:36;;;;;;;;;;;17.90;99.90;;;;;;5097392;28;19937;-69
2023/08/01 03:26:02;;;;;;;;;;;17.90;99.90;;;;;;5097053;28;19942;-69
2023/08/01 03:28:27;;;;;;;;;;;17.90;99.90;;;;;;5095794;28;19908;-69
2023/08/01 03:30:53;;;;;;;;;;;17.90;99.90;;;;;;5097250;28;19969;-69
2023/08/01 03:33:19;;;;;;;;;;;17.90;99.90;;;;;;5096707;28;20002;-70
2023/08/01 03:35:45;;;;;;;;;;;17.80;99.90;;;;;;5097582;28;20015;-69
2023/08/01 03:38:11;;;;;;;;;;;17.80;99.90;;;;;;5097266;28;19912;-68
2023/08/01 03:40:36;;;;;;;;;;;17.80;99.90;;;;;;5097111;28;20419;-69
2023/08/01 03:43:02;;;;;;;;;;;17.80;99.90;;;;;;5096733;28;19941;-69
2023/08/01 03:45:27;;;;;;;;;;;17.90;99.90;;;;;;5096963;28;19908;-69
2023/08/01 03:47:53;;;;;;;;;;;17.80;99.90;;;;;;5097525;28;19904;-69
2023/08/01 03:50:18;;;;;;;;;;;17.80;99.90;;;;;;5096804;28;20389;-68
2023/08/01 03:52:45;;;;;;;;;;;17.80;99.90;;;;;;5096754;28;19919;-68
2023/08/01 03:55:10;;;;;;;;;;;17.80;99.90;;;;;;5096758;28;19908;-68
2023/08/01 03:57:38;;;;;;;;;;;17.80;99.90;;;;;;5095527;28;19908;-68
2023/08/01 04:00:05;;;;;;;;;;;17.70;99.90;;;;;;5092469;28;20500;-68
2023/08/01 04:02:31;;;;;;;;;;;17.70;99.90;;;;;;5093802;28;19904;-69
2023/08/01 04:04:56;;;;;;;;;;;17.70;99.90;;;;;;5093673;28;20254;-68
2023/08/01 04:07:22;;;;;;;;;;;17.70;99.90;;;;;;5093478;28;19923;-68
2023/08/01 04:09:48;;;;;;;;;;;17.70;99.90;;;;;;5093456;28;19919;-68
2023/08/01 04:12:13;;;;;;;;;;;17.70;99.90;;;;;;5093358;28;20338;-69
2023/08/01 04:14:39;;;;;;;;;;;17.70;99.90;;;;;;5093779;28;19911;-68
2023/08/01 04:17:05;;;;;;;;;;;17.70;99.90;;;;;;5092079;28;20393;-68
2023/08/01 04:19:30;;;;;;;;;;;17.80;99.90;;;;;;5093315;28;19908;-68
2023/08/01 04:21:56;;;;;;;;;;;17.80;99.90;;;;;;5093172;28;19966;-69
2023/08/01 04:24:25;;;;;;;;;;;17.80;99.90;;;;;;5092852;28;19994;-68
2023/08/01 04:26:50;;;;;;;;;;;17.80;99.90;;;;;;5092408;28;19915;-69
2023/08/01 04:29:17;;;;;;;;;;;17.90;99.90;;;;;;5093050;28;19908;-69
2023/08/01 04:31:43;;;;;;;;;;;17.80;99.90;;;;;;5093127;28;19915;-69
2023/08/01 04:34:08;;;;;;;;;;;17.80;99.90;;;;;;5091626;28;19920;-70
2023/08/01 04:36:34;;;;;;;;;;;17.90;99.90;;;;;;5091513;28;19920;-68
2023/08/01 04:38:59;;;;;;;;;;;17.90;99.90;;;;;;5093103;28;19904;-69
2023/08/01 04:41:25;;;;;;;;;;;17.90;99.90;;;;;;5092577;28;19908;-68
2023/08/01 04:43:51;;;;;;;;;;;17.90;99.90;;;;;;5092707;28;19920;-68
2023/08/01 04:46:16;;;;;;;;;;;17.90;99.90;;;;;;5091471;28;19915;-69
2023/08/01 04:48:42;;;;;;;;;;;17.80;99.90;;;;;;5092366;28;20405;-69
2023/08/01 04:51:07;;;;;;;;;;;17.70;99.90;;;;;;5091486;28;19926;-69
2023/08/01 04:53:33;;;;;;;;;;;17.70;99.90;;;;;;5093052;28;19904;-69
2023/08/01 04:55:59;;;;;;;;;;;17.80;99.90;;;;;;5092186;28;19908;-69
2023/08/01 04:58:24;;;;;;;;;;;17.70;99.90;;;;;;5091152;28;20330;-70
2023/08/01 05:00:50;;;;;;;;;;;17.70;99.90;;;;;;5092270;28;19908;-69
2023/08/01 05:03:15;;;;;;;;;;;17.70;99.90;;;;;;5092120;28;20284;-69
2023/08/01 05:05:40;;;;;;;;;;;17.80;99.90;;;;;;5092503;28;19951;-70
2023/08/01 05:08:06;;;;;;;;;;;17.80;99.90;;;;;;5092109;28;19912;-68
2023/08/01 05:10:32;;;;;;;;;;;17.70;99.90;;;;;;5092111;28;20407;-69
2023/08/01 05:12:57;;;;;;;;;;;17.80;99.90;;;;;;5091920;28;20357;-69
2023/08/01 05:15:23;;;;;;;;;;;17.80;99.90;;;;;;5092073;28;20341;-69
2023/08/01 05:17:48;;;;;;;;;;;17.80;99.90;;;;;;5092298;28;20321;-70
2023/08/01 05:20:14;;;;;;;;;;;17.80;99.90;;;;;;5092034;28;19908;-69
2023/08/01 05:22:39;;;;;;;;;;;17.80;99.90;;;;;;5091956;28;20257;-69
2023/08/01 05:25:05;;;;;;;;;;;17.80;99.90;;;;;;5091065;28;20415;-69
2023/08/01 05:27:31;;;;;;;;;;;17.80;99.90;;;;;;5091969;28;19999;-69
2023/08/01 05:29:56;;;;;;;;;;;17.80;99.90;;;;;;5092096;28;19911;-69
2023/08/01 05:32:22;;;;;;;;;;;17.70;99.90;;;;;;5091508;28;19924;-69
2023/08/01 05:34:47;;;;;;;;;;;17.80;99.90;;;;;;5092006;28;19926;-70
2023/08/01 05:37:13;;;;;;;;;;;17.80;99.90;;;;;;5091518;28;20243;-68
2023/08/01 05:39:38;;;;;;;;;;;17.80;99.90;;;;;;5091713;28;19908;-69
2023/08/01 05:42:08;;;;;;;;;;;17.80;99.90;;;;;;5091505;28;20342;-69
2023/08/01 05:44:34;;;;;;;;;;;17.80;99.90;;;;;;5092086;28;19908;-70
2023/08/01 05:46:59;;;;;;;;;;;17.80;99.90;;;;;;5091695;28;19922;-70
2023/08/01 05:49:25;;;;;;;;;;;17.80;99.90;;;;;;5091304;28;20019;-69
2023/08/01 05:51:50;;;;;;;;;;;17.80;99.90;;;;;;5091638;28;20330;-69
2023/08/01 05:54:16;;;;;;;;;;;17.80;99.90;;;;;;5091308;28;19926;-69
2023/08/01 05:56:41;;;;;;;;;;;17.90;99.90;;;;;;5091793;28;19924;-70
2023/08/01 05:59:07;;;;;;;;;;;17.80;99.90;;;;;;5091245;28;20401;-69
2023/08/01 06:01:33;;;;;;;;;;;17.90;99.90;;;;;;5090890;28;19908;-69
2023/08/01 06:03:59;;;;;;;;;;;17.90;99.90;;;;;;5091003;28;19923;-69
2023/08/01 06:06:24;;;;;;;;;;;17.90;99.90;;;;;;5089986;28;19908;-70
2023/08/01 06:08:51;;;;;;;;;;;17.90;99.90;;;;;;5091449;28;20002;-69
2023/08/01 06:11:17;;;;;;;;;;;17.90;99.90;;;;;;5090991;28;19908;-68
2023/08/01 06:13:42;;;;;;;;;;;17.90;99.90;;;;;;5090905;28;20356;-69
2023/08/01 06:16:08;;;;;;;;;;;17.90;99.90;;;;;;5090979;28;19914;-68
2023/08/01 06:18:33;;;;;;;;;;;18.00;99.90;;;;;;5089762;28;19908;-68
2023/08/01 06:20:59;;;;;;;;;;;17.90;99.90;;;;;;5091106;28;19908;-70
2023/08/01 06:23:24;;;;;;;;;;;17.90;99.90;;;;;;5090445;28;19969;-68
2023/08/01 06:25:50;;;;;;;;;;;17.90;99.90;;;;;;5090845;28;19908;-69
2023/08/01 06:28:15;;;;;;;;;;;17.80;99.90;;;;;;5089614;28;19908;-69
2023/08/01 06:30:41;;;;;;;;;;;17.90;99.90;;;;;;5091353;28;19912;-69
2023/08/01 06:33:06;;;;;;;;;;;17.80;99.90;;;;;;5090689;28;20365;-68
2023/08/01 06:35:32;;;;;;;;;;;17.80;99.90;;;;;;5091503;28;19995;-69
2023/08/01 06:37:58;;;;;;;;;;;17.90;99.90;;;;;;5090695;28;19963;-68
2023/08/01 06:40:23;;;;;;;;;;;17.80;99.90;;;;;;5090859;28;19908;-68
2023/08/01 06:42:49;;;;;;;;;;;17.80;99.90;;;;;;5090962;28;20258;-68
2023/08/01 06:45:14;;;;;;;;;;;17.80;99.90;;;;;;5090656;28;19904;-68
2023/08/01 06:47:40;;;;;;;;;;;17.90;99.90;;;;;;5091019;28;19914;-69
2023/08/01 06:50:06;;;;;;;;;;;17.90;99.90;;;;;;5090559;28;19908;-68
2023/08/01 06:52:31;;;;;;;;;;;17.90;99.90;;;;;;5091002;28;19912;-69
2023/08/01 06:54:57;;;;;;;;;;;17.90;99.90;;;;;;5090655;28;20349;-69
2023/08/01 06:57:23;;;;;;;;;;;17.80;99.90;;;;;;5089267;28;19924;-70
2023/08/01 06:59:48;;;;;;;;;;;17.80;99.90;;;;;;5090038;28;19916;-69
2023/08/01 07:02:15;;;;;;;;;;;17.90;99.90;;;;;;5090660;28;19994;-69
2023/08/01 07:04:40;;;;;;;;;;;17.90;99.90;;;;;;5090392;28;20239;-70
2023/08/01 07:07:08;;;;;;;;;;;17.90;99.90;;;;;;5090642;28;19908;-70
2023/08/01 07:09:34;;;;;;;;;;;17.90;99.90;;;;;;5089241;28;19908;-69
2023/08/01 07:11:59;;;;;;;;;;;18.00;99.90;;;;;;5091090;28;19991;-69
2023/08/01 07:14:25;;;;;;;;;;;17.90;99.90;;;;;;5090741;28;19969;-69
2023/08/01 07:16:51;;;;;;;;;;;17.90;99.90;;;;;;5090468;28;19923;-69
2023/08/01 07:19:16;;;;;;;;;;;17.90;99.90;;;;;;5090257;28;20334;-68
2023/08/01 07:21:44;;;;;;;;;;;18.00;99.90;;;;;;5090489;28;19916;-69
2023/08/01 07:24:09;;;;;;;;;;;18.10;99.90;;;;;;5090206;28;20305;-68
2023/08/01 07:26:35;;;;;;;;;;;18.10;99.90;;;;;;5090727;28;20381;-69
2023/08/01 07:29:00;;;;;;;;;;;18.10;99.90;;;;;;5090373;28;19915;-70
2023/08/01 07:31:26;;;;;;;;;;;18.10;99.90;;;;;;5090272;28;19912;-69
2023/08/01 07:33:52;;;;;;;;;;;18.00;99.90;;;;;;5090848;28;19932;-69
2023/08/01 07:36:17;;;;;;;;;;;18.10;99.90;;;;;;5094092;28;19908;-69
2023/08/01 07:38:43;;;;;;;;;;;18.10;99.90;;;;;;5094466;28;19904;-69
2023/08/01 07:41:08;;;;;;;;;;;18.10;99.90;;;;;;5094114;28;20011;-68
2023/08/01 07:43:34;;;;;;;;;;;18.10;99.90;;;;;;5093739;28;19920;-68
2023/08/01 07:46:00;;;;;;;;;;;18.30;99.90;;;;;;5092732;28;20350;-71
2023/08/01 07:48:25;;;;;;;;;;;18.30;99.90;;;;;;5093819;28;19954;-68
2023/08/01 07:50:51;;;;;;;;;;;18.40;99.90;;;;;;5093131;28;19908;-69
2023/08/01 07:53:17;;;;;;;;;;;18.30;99.90;;;;;;5093787;28;19922;-69
2023/08/01 07:55:43;;;;;;;;;;;18.30;99.90;;;;;;5092380;28;19916;-68
2023/08/01 07:58:08;;;;;;;;;;;18.30;99.90;;;;;;5092568;28;20301;-69
2023/08/01 08:00:37;;;;;;;;;;;18.40;99.90;;;;;;5092487;28;19908;-69
2023/08/01 08:03:02;;;;;;;;;;;18.50;99.90;;;;;;5093798;28;19912;-69
2023/08/01 08:05:28;;;;;;;;;;;18.60;99.90;;;;;;5094227;28;19904;-69
2023/08/01 08:07:53;;;;;;;;;;;18.60;99.90;;;;;;5093503;28;19908;-69
2023/08/01 08:10:19;;;;;;;;;;;18.80;99.90;;;;;;5093362;28;19908;-69
2023/08/01 08:12:45;;;;;;;;;;;18.90;99.90;;;;;;5092479;28;20336;-69
2023/08/01 08:15:10;;;;;;;;;;;19.00;99.90;;;;;;5092488;28;20329;-70
2023/08/01 08:17:36;;;;;;;;;;;19.30;99.90;;;;;;5092960;28;19946;-70
2023/08/01 08:20:03;;;;;;;;;;;19.30;99.90;;;;;;5092452;28;19923;-68
2023/08/01 08:22:28;;;;;;;;;;;19.40;99.90;;;;;;5091750;28;20353;-70
2023/08/01 08:24:54;;;;;;;;;;;19.70;99.90;;;;;;5092939;28;19912;-70
2023/08/01 08:27:20;;;;;;;;;;;19.70;99.90;;;;;;5093596;28;20365;-70
2023/08/01 08:29:45;;;;;;;;;;;19.60;99.90;;;;;;5093700;28;19915;-71
2023/08/01 08:32:11;;;;;;;;;;;19.70;99.90;;;;;;5091574;28;19911;-70
2023/08/01 08:34:36;;;;;;;;;;;19.60;99.90;;;;;;5093110;28;19950;-70
2023/08/01 08:37:03;;;;;;;;;;;19.50;99.90;;;;;;5093119;28;20345;-70
2023/08/01 08:39:29;;;;;;;;;;;19.90;99.90;;;;;;5091676;28;20053;-71
2023/08/01 08:41:55;;;;;;;;;;;20.20;99.90;;;;;;5093340;28;19915;-71
2023/08/01 08:44:20;;;;;;;;;;;20.70;99.90;;;;;;5092220;28;19916;-69
2023/08/01 08:46:49;;;;;;;;;;;21.10;99.90;;;;;;5092667;28;20250;-70
2023/08/01 08:49:16;;;;;;;;;;;21.50;99.90;;;;;;5092791;28;19909;-70
2023/08/01 08:51:42;;;;;;;;;;;22.10;99.90;;;;;;5091415;28;19915;-70
2023/08/01 08:54:08;;;;;;;;;;;21.90;99.90;;;;;;5092517;28;19980;-70
2023/08/01 08:56:35;;;;;;;;;;;21.80;99.90;;;;;;5092943;28;20405;-71
2023/08/01 08:59:01;;;;;;;;;;;21.30;99.90;;;;;;5092483;28;20298;-69
2023/08/01 09:01:26;;;;;;;;;;;21.30;99.90;;;;;;5092661;28;19908;-70
2023/08/01 09:03:53;;;;;;;;;;;21.50;99.90;;;;;;5092401;28;19927;-69
2023/08/01 09:06:24;;;;;;;;;;;21.60;99.90;;;;;;5092226;28;19972;-70
2023/08/01 09:08:51;;;;;;;;;;;22.10;99.90;;;;;;5092740;28;19914;-71
2023/08/01 09:11:17;;;;;;;;;;;23.40;99.90;;;;;;5092302;28;19957;-70
2023/08/01 09:13:43;;;;;;;;;;;23.40;98.50;;;;;;5091930;28;19916;-69
2023/08/01 09:16:09;;;;;;;;;;;24.00;99.00;;;;;;5092223;28;20218;-70
2023/08/01 09:18:35;;;;;;;;;;;23.90;97.80;;;;;;5092033;28;19908;-70
2023/08/01 09:21:04;;;;;;;;;;;23.30;98.40;;;;;;5091905;28;19904;-69
2023/08/01 09:23:30;;;;;;;;;;;23.70;98.80;;;;;;5092480;28;19908;-70
2023/08/01 09:25:56;;;;;;;;;;;23.80;97.80;;;;;;5092137;28;20349;-69
2023/08/01 09:28:22;;;;;;;;;;;24.20;97.90;;;;;;5090690;28;19954;-70
2023/08/01 09:30:49;;;;;;;;;;;24.30;97.30;;;;;;5091812;28;20372;-69
2023/08/01 09:33:15;;;;;;;;;;;23.80;97.20;;;;;;5091509;28;19916;-69
2023/08/01 09:35:41;;;;;;;;;;;23.70;97.50;;;;;;5092171;28;19915;-68
2023/08/01 09:38:06;;;;;;;;;;;23.60;97.70;;;;;;5091642;28;19916;-69
2023/08/01 09:40:38;;;;;;;;;;;24.00;96.70;;;;;;5091698;28;19916;-69
2023/08/01 09:43:04;;;;;;;;;;;23.70;96.00;;;;;;5091779;28;20346;-69
2023/08/01 09:45:29;;;;;;;;;;;24.10;95.50;;;;;;5091522;28;20020;-69
2023/08/01 09:47:55;;;;;;;;;;;24.20;95.80;;;;;;5092424;28;19904;-69
2023/08/01 09:50:21;;;;;;;;;;;24.70;95.30;;;;;;5091326;28;19908;-69
2023/08/01 09:52:52;;;;;;;;;;;25.20;95.00;;;;;;5090686;28;19912;-69
2023/08/01 09:55:19;;;;;;;;;;;25.10;94.40;;;;;;5090180;28;19923;-68
2023/08/01 09:57:46;;;;;;;;;;;25.20;94.00;;;;;;5090582;28;19965;-69
2023/08/01 10:00:11;;;;;;;;;;;25.40;93.70;;;;;;5091555;28;19923;-68
2023/08/01 10:02:38;;;;;;;;;;;25.70;93.20;;;;;;5091749;28;19903;-70
2023/08/01 10:05:05;;;;;;;;;;;25.60;93.00;;;;;;5091313;28;19916;-69
2023/08/01 10:07:31;;;;;;;;;;;25.00;92.60;;;;;;5091213;28;19912;-68
2023/08/01 10:09:57;;;;;;;;;;;24.40;93.40;;;;;;5091098;28;20372;-69
2023/08/01 10:12:24;;;;;;;;;;;23.80;94.10;;;;;;5090862;28;20282;-69
2023/08/01 10:14:50;;;;;;;;;;;23.70;94.10;;;;;;5090945;28;19904;-68
2023/08/01 10:17:16;;;;;;;;;;;23.90;94.60;;;;;;5091178;28;20257;-69
2023/08/01 10:19:42;;;;;;;;;;;23.90;95.00;;;;;;5091043;28;19923;-68
2023/08/01 10:22:08;;;;;;;;;;;23.60;95.10;;;;;;5091097;28;19919;-69
2023/08/01 10:24:34;;;;;;;;;;;23.50;95.40;;;;;;5090834;28;19973;-69
2023/08/01 10:27:13;;;;;;;;;;;23.30;95.30;;;;;;5091493;28;19908;-67
2023/08/01 10:29:39;;;;;;;;;;;23.10;95.50;;;;;;5090779;28;19980;-69
2023/08/01 10:32:06;;;;;;;;;;;22.30;95.10;;;;;;5090919;28;19914;-68
2023/08/01 10:34:32;;;;;;;;;;;22.30;96.20;;;;;;5091048;28;20308;-68
2023/08/01 10:36:58;;;;;;;;;;;22.50;96.10;;;;;;5091079;28;19919;-68
2023/08/01 10:39:25;;;;;;;;;;;22.20;96.00;;;;;;5090835;28;19916;-69
2023/08/01 10:41:58;;;;;;;;;;;22.30;96.40;;;;;;5090218;28;19920;-68
2023/08/01 10:44:25;;;;;;;;;;;22.10;96.60;;;;;;5090801;28;19912;-70
2023/08/01 10:46:52;;;;;;;;;;;21.90;97.20;;;;;;5090814;28;19908;-69
2023/08/01 10:49:18;;;;;;;;;;;22.10;98.20;;;;;;5089957;28;20258;-68
2023/08/01 10:51:44;;;;;;;;;;;22.10;98.00;;;;;;5090707;28;20330;-68
2023/08/01 10:54:19;;;;;;;;;;;22.20;98.10;;;;;;5090668;28;19965;-69
2023/08/01 10:56:46;;;;;;;;;;;21.80;98.90;;;;;;5091390;28;19907;-68
2023/08/01 10:59:12;;;;;;;;;;;21.80;99.30;;;;;;5089540;28;20000;-68
2023/08/01 11:01:58;;;;;;;;;;;21.70;99.70;;;;;;5090773;28;19969;-68
2023/08/01 11:04:24;;;;;;;;;;;21.70;99.40;;;;;;5089989;28;19912;-69
2023/08/01 11:06:50;;;;;;;;;;;21.70;98.90;;;;;;5090496;28;20345;-68
2023/08/01 11:09:22;;;;;;;;;;;21.90;98.90;;;;;;5092856;28;19904;-69
2023/08/01 11:11:52;;;;;;;;;;;22.10;98.60;;;;;;5093665;28;19908;-68
2023/08/01 11:14:22;;;;;;;;;;;21.80;97.10;;;;;;5094577;28;20006;-67
2023/08/01 11:16:48;;;;;;;;;;;21.80;96.70;;;;;;5094646;28;19911;-69
2023/08/01 11:19:31;;;;;;;;;;;21.60;97.20;;;;;;5094362;28;19919;-68
2023/08/01 11:21:57;;;;;;;;;;;21.70;97.30;;;;;;5094296;28;19912;-69
2023/08/01 11:24:23;;;;;;;;;;;21.90;97.10;;;;;;5094170;28;19922;-68
2023/08/01 11:26:49;;;;;;;;;;;22.10;96.80;;;;;;5095150;28;19953;-68
2023/08/01 11:29:16;;;;;;;;;;;22.10;97.00;;;;;;5093206;28;19919;-69
2023/08/01 11:31:52;;;;;;;;;;;22.10;96.30;;;;;;5094374;28;20407;-71
2023/08/01 11:34:18;;;;;;;;;;;22.00;96.10;;;;;;5092921;28;19935;-69
2023/08/01 11:36:45;;;;;;;;;;;22.20;96.20;;;;;;5094120;28;20003;-67
2023/08/01 11:39:11;;;;;;;;;;;22.20;95.50;;;;;;5093896;28;19955;-67
2023/08/01 11:41:37;;;;;;;;;;;22.20;94.90;;;;;;5093338;28;19900;-67
2023/08/01 11:44:04;;;;;;;;;;;22.00;94.70;;;;;;5093893;28;20270;-68
2023/08/01 11:46:33;;;;;;;;;;;21.80;95.30;;;;;;5093950;28;19908;-68
2023/08/01 11:48:59;;;;;;;;;;;21.50;98.70;;;;;;5093828;28;20003;-69
2023/08/01 11:51:24;;;;;;;;;;;21.30;99.80;;;;;;5093725;28;20006;-69
2023/08/01 11:54:03;;;;;;;;;;;21.20;99.90;;;;;;5094461;28;20211;-68
2023/08/01 11:56:29;;;;;;;;;;;21.20;99.90;;;;;;5093912;28;20177;-68
2023/08/01 11:58:54;;;;;;;;;;;20.90;99.90;;;;;;5093923;28;20366;-69
2023/08/01 12:01:20;;;;;;;;;;;20.90;99.90;;;;;;5092572;28;19947;-69
2023/08/01 12:03:47;;;;;;;;;;;20.80;99.90;;;;;;5093519;28;19988;-68
2023/08/01 12:06:13;;;;;;;;;;;20.90;99.90;;;;;;5093748;28;19961;-69
2023/08/01 12:08:41;;;;;;;;;;;21.10;99.90;;;;;;5094243;28;19979;-69
2023/08/01 12:11:17;;;;;;;;;;;21.10;99.90;;;;;;5093625;28;19908;-69
2023/08/01 12:13:43;;;;;;;;;;;21.30;99.90;;;;;;5093341;28;19942;-68
2023/08/01 12:16:08;;;;;;;;;;;21.50;99.90;;;;;;5092481;28;20330;-69
2023/08/01 12:18:34;;;;;;;;;;;21.40;99.90;;;;;;5092365;28;19919;-69
2023/08/01 12:20:59;;;;;;;;;;;21.60;99.90;;;;;;5092695;28;19903;-69
2023/08/01 12:23:25;;;;;;;;;;;21.60;99.90;;;;;;5093059;28;19912;-68
2023/08/01 12:25:51;;;;;;;;;;;21.60;99.50;;;;;;5093050;28;19908;-69
2023/08/01 12:28:16;;;;;;;;;;;21.60;99.40;;;;;;5093367;28;20239;-69
2023/08/01 12:30:43;;;;;;;;;;;21.60;99.40;;;;;;5093628;28;19916;-68
2023/08/01 12:33:09;;;;;;;;;;;21.50;99.40;;;;;;5092919;28;19916;-70
2023/08/01 12:35:38;;;;;;;;;;;21.40;99.20;;;;;;5092396;28;19915;-69
2023/08/01 12:38:04;;;;;;;;;;;21.30;99.00;;;;;;5092102;28;20187;-70
2023/08/01 12:40:29;;;;;;;;;;;20.90;99.20;;;;;;5091732;28;19908;-68
2023/08/01 12:42:55;;;;;;;;;;;20.60;99.90;;;;;;5092967;28;20093;-71
2023/08/01 12:45:20;;;;;;;;;;;20.40;99.90;;;;;;5092834;28;20376;-69
2023/08/01 12:47:46;;;;;;;;;;;20.40;99.90;;;;;;5093558;28;19904;-71
2023/08/01 12:50:11;;;;;;;;;;;20.40;99.90;;;;;;5093106;28;19955;-69
2023/08/01 12:52:37;;;;;;;;;;;20.50;99.90;;;;;;5092927;28;20355;-69
2023/08/01 12:55:03;;;;;;;;;;;20.30;99.90;;;;;;5092591;28;19908;-70
2023/08/01 12:57:28;;;;;;;;;;;20.40;99.90;;;;;;5092587;28;19908;-69
2023/08/01 12:59:54;;;;;;;;;;;20.50;99.90;;;;;;5092009;28;19916;-69
2023/08/01 13:02:19;;;;;;;;;;;20.60;99.90;;;;;;5092500;28;19908;-71
2023/08/01 13:04:45;;;;;;;;;;;20.80;99.90;;;;;;5092526;28;20004;-70
2023/08/01 13:07:10;;;;;;;;;;;20.80;99.90;;;;;;5091140;28;19995;-69
2023/08/01 13:09:36;;;;;;;;;;;20.90;99.90;;;;;;5092516;28;19961;-68
2023/08/01 13:12:02;;;;;;;;;;;20.90;99.90;;;;;;5090985;28;20364;-69
2023/08/01 13:14:27;;;;;;;;;;;20.80;99.90;;;;;;5092573;28;20386;-68
2023/08/01 13:16:53;;;;;;;;;;;20.80;99.90;;;;;;5092753;28;19908;-69
2023/08/01 13:19:19;;;;;;;;;;;20.80;99.90;;;;;;5092158;28;19908;-69
2023/08/01 13:21:44;;;;;;;;;;;20.70;99.90;;;;;;5091139;28;20322;-70
2023/08/01 13:24:10;;;;;;;;;;;20.40;99.90;;;;;;5091913;28;19908;-70
2023/08/01 13:26:36;;;;;;;;;;;20.40;99.90;;;;;;5092680;28;19968;-70
2023/08/01 13:29:01;;;;;;;;;;;20.30;99.90;;;;;;5091873;28;19961;-69
2023/08/01 13:31:28;;;;;;;;;;;20.30;99.90;;;;;;5090815;28;20029;-70
2023/08/01 13:33:54;;;;;;;;;;;20.20;99.90;;;;;;5090674;28;19958;-71
2023/08/01 13:36:20;;;;;;;;;;;19.90;99.90;;;;;;5092413;28;20206;-71
2023/08/01 13:38:45;;;;;;;;;;;19.70;99.90;;;;;;5091170;28;19976;-70
2023/08/01 13:41:11;;;;;;;;;;;19.70;99.90;;;;;;5092827;28;20385;-71
2023/08/01 13:43:36;;;;;;;;;;;19.70;99.90;;;;;;5091878;28;19912;-69
2023/08/01 13:46:15;;;;;;;;;;;19.70;99.90;;;;;;5091846;28;20391;-70
2023/08/01 13:48:41;;;;;;;;;;;19.50;99.90;;;;;;5091969;28;19908;-72
2023/08/01 13:51:07;;;;;;;;;;;19.60;99.90;;;;;;5090893;28;20238;-70
2023/08/01 13:53:33;;;;;;;;;;;19.70;99.90;;;;;;5092158;28;19912;-71
2023/08/01 13:55:59;;;;;;;;;;;19.50;99.90;;;;;;5091918;28;19941;-70
2023/08/01 13:58:25;;;;;;;;;;;19.70;99.90;;;;;;5091763;28;19908;-70
2023/08/01 14:00:50;;;;;;;;;;;19.90;99.90;;;;;;5091596;28;20281;-70
2023/08/01 14:03:16;;;;;;;;;;;20.10;99.90;;;;;;5091268;28;20002;-71
2023/08/01 14:05:41;;;;;;;;;;;20.10;99.90;;;;;;5090635;28;19914;-70
2023/08/01 14:08:07;;;;;;;;;;;20.10;99.90;;;;;;5091259;28;19912;-70
2023/08/01 14:10:32;;;;;;;;;;;20.30;99.90;;;;;;5090944;28;19927;-70